createdAt,value
2019-04-26T00:00:17.905Z,54.00
2019-04-26T00:02:51.578Z,54.50
2019-04-26T00:05:20.487Z,54.60
2019-04-26T00:07:49.803Z,54.10
2019-04-26T00:10:35.494Z,53.80
2019-04-26T00:13:09.859Z,53.90
2019-04-26T00:15:40.798Z,54.90
2019-04-26T00:18:11.396Z,54.10
2019-04-26T00:20:40.938Z,54.30
2019-04-26T00:23:10.743Z,54.20
2019-04-26T00:25:40.096Z,54.60
2019-04-26T00:28:09.115Z,54.60
2019-04-26T00:30:37.913Z,54.70
2019-04-26T00:33:06.823Z,54.90
2019-04-26T00:35:46.825Z,54.80
2019-04-26T00:38:06.376Z,55.00
2019-04-26T00:40:35.296Z,55.40
2019-04-26T00:43:06.408Z,55.10
2019-04-26T00:45:36.682Z,55.20
2019-04-26T00:48:06.448Z,56.30
2019-04-26T00:50:36.636Z,55.30
2019-04-26T00:53:06.824Z,55.40
2019-04-26T00:55:36.596Z,57.30
2019-04-26T00:58:06.080Z,56.90
2019-04-26T01:00:35.353Z,57.60
2019-04-26T01:03:04.358Z,57.90
2019-04-26T01:05:34.800Z,57.90
2019-04-26T01:08:03.709Z,57.40
2019-04-26T01:10:32.619Z,58.20
2019-04-26T01:13:01.420Z,58.10
2019-04-26T01:15:30.431Z,58.60
2019-04-26T01:17:59.444Z,59.10
2019-04-26T01:20:30.325Z,60.10
2019-04-26T01:23:02.175Z,60.30
2019-04-26T01:25:43.341Z,62.20
2019-04-26T01:28:18.523Z,63.10
2019-04-26T01:30:48.747Z,65.30
2019-04-26T01:33:18.717Z,66.90
2019-04-26T01:35:48.506Z,67.90
2019-04-26T01:38:18.130Z,69.60
2019-04-26T01:40:48.680Z,71.10
2019-04-26T01:43:22.909Z,71.20
2019-04-26T01:46:02.052Z,72.30
2019-04-26T01:48:46.829Z,72.20
2019-04-26T01:51:22.749Z,72.30
2019-04-26T01:53:52.812Z,71.70
2019-04-26T01:56:27.262Z,71.80
2019-04-26T01:58:56.166Z,72.10
2019-04-26T02:01:30.167Z,72.00
2019-04-26T02:03:59.095Z,72.00
2019-04-26T02:06:31.272Z,71.00
2019-04-26T02:08:58.536Z,71.80
2019-04-26T02:11:27.457Z,71.70
2019-04-26T02:13:56.365Z,71.70
2019-04-26T02:16:27.001Z,72.00
2019-04-26T02:18:55.923Z,71.40
2019-04-26T02:21:27.017Z,71.50
2019-04-26T02:23:58.754Z,71.20
2019-04-26T02:26:35.162Z,71.20
2019-04-26T02:29:18.663Z,70.30
2019-04-26T02:31:50.447Z,70.10
2019-04-26T02:34:19.462Z,70.90
2019-04-26T02:36:58.041Z,71.40
2019-04-26T02:39:21.290Z,71.80
2019-04-26T02:41:52.870Z,72.50
2019-04-26T02:44:26.698Z,72.20
2019-04-26T02:47:43.462Z,72.40
2019-04-26T02:50:19.654Z,72.50
2019-04-26T02:53:00.205Z,72.60
2019-04-26T02:55:59.185Z,72.20
2019-04-26T02:58:31.945Z,71.90
2019-04-26T03:01:02.440Z,71.60
2019-04-26T03:03:33.380Z,71.60
2019-04-26T03:06:02.630Z,71.80
2019-04-26T03:08:35.862Z,71.90
2019-04-26T03:11:07.998Z,71.80
2019-04-26T03:13:52.565Z,72.10
2019-04-26T03:16:33.529Z,72.00
2019-04-26T03:19:21.696Z,72.30
2019-04-26T03:22:02.376Z,72.50
2019-04-26T03:24:38.621Z,73.70
2019-04-26T03:27:10.541Z,73.20
2019-04-26T03:29:44.961Z,73.60
2019-04-26T03:32:25.639Z,73.50
2019-04-26T03:34:59.048Z,73.60
2019-04-26T03:37:42.663Z,73.70
2019-04-26T03:40:39.020Z,74.00
2019-04-26T03:43:34.434Z,74.30
2019-04-26T03:46:18.302Z,74.60
2019-04-26T03:49:01.939Z,74.80
2019-04-26T03:51:43.109Z,75.10
2019-04-26T03:54:22.068Z,75.60
2019-04-26T03:57:01.010Z,75.70
2019-04-26T03:59:44.221Z,75.60
2019-04-26T04:02:32.331Z,75.60
2019-04-26T04:05:17.570Z,75.60
2019-04-26T04:07:51.379Z,75.40
2019-04-26T04:10:27.971Z,75.20
2019-04-26T04:13:17.962Z,74.80
2019-04-26T04:15:49.930Z,74.60
2019-04-26T04:18:24.883Z,74.40
2019-04-26T04:21:31.459Z,74.40
2019-04-26T04:24:03.331Z,74.40
2019-04-26T04:26:50.152Z,74.50
2019-04-26T04:29:48.558Z,74.50
2019-04-26T04:32:11.201Z,74.60
2019-04-26T04:34:44.040Z,74.60
2019-04-26T04:37:18.161Z,74.80
2019-04-26T04:40:18.960Z,74.90
2019-04-26T04:42:52.625Z,74.90
2019-04-26T04:45:31.817Z,75.20
2019-04-26T04:48:20.097Z,74.90
2019-04-26T04:51:08.317Z,75.00
2019-04-26T04:53:56.674Z,75.10
2019-04-26T04:57:05.492Z,75.20
2019-04-26T04:59:44.565Z,75.20
2019-04-26T05:02:20.913Z,75.20
2019-04-26T05:05:18.479Z,75.80
2019-04-26T05:07:51.423Z,75.60
2019-04-26T05:10:38.497Z,75.90
2019-04-26T05:13:19.277Z,76.40
2019-04-26T05:15:55.298Z,76.10
2019-04-26T05:18:57.414Z,76.10
2019-04-26T05:21:47.303Z,76.20
2019-04-26T05:24:38.934Z,76.10
2019-04-26T05:27:46.903Z,76.50
2019-04-26T05:30:32.831Z,76.60
2019-04-26T05:33:07.269Z,76.40
2019-04-26T05:36:03.087Z,76.10
2019-04-26T05:38:40.830Z,76.00
2019-04-26T05:41:48.612Z,75.40
2019-04-26T05:44:41.145Z,75.50
2019-04-26T05:47:20.007Z,75.30
2019-04-26T05:50:28.291Z,75.20
2019-04-26T05:53:10.807Z,74.50
2019-04-26T05:56:02.644Z,73.60
2019-04-26T05:58:39.938Z,73.50
2019-04-26T06:01:34.638Z,73.60
2019-04-26T06:04:33.725Z,73.10
2019-04-26T06:07:19.120Z,72.80
2019-04-26T06:10:11.977Z,72.10
2019-04-26T06:12:54.529Z,71.80
2019-04-26T06:15:44.901Z,71.40
2019-04-26T06:18:32.636Z,71.40
2019-04-26T06:21:13.619Z,71.30
2019-04-26T06:23:57.852Z,70.70
2019-04-26T06:26:43.470Z,70.50
2019-04-26T06:29:21.074Z,69.90
2019-04-26T06:32:11.166Z,69.80
2019-04-26T06:34:59.412Z,70.00
2019-04-26T06:38:06.498Z,69.40
2019-04-26T06:41:11.843Z,68.40
2019-04-26T06:43:51.902Z,67.90
2019-04-26T06:46:47.410Z,67.40
2019-04-26T06:49:20.019Z,66.90
2019-04-26T06:51:51.783Z,66.20
2019-04-26T06:54:26.305Z,65.30
2019-04-26T06:57:18.052Z,64.10
2019-04-26T07:00:02.333Z,63.40
2019-04-26T07:02:57.500Z,62.00
2019-04-26T07:05:32.162Z,60.40
2019-04-26T07:08:24.914Z,58.40
2019-04-26T07:10:58.179Z,55.70
2019-04-26T07:13:47.283Z,54.50
2019-04-26T07:16:30.848Z,54.30
2019-04-26T07:19:19.086Z,54.20
2019-04-26T07:22:10.893Z,53.00
2019-04-26T07:24:56.609Z,51.90
2019-04-26T07:27:28.361Z,51.40
2019-04-26T07:30:21.966Z,50.90
2019-04-26T07:32:54.325Z,50.60
2019-04-26T07:35:59.375Z,50.80
2019-04-26T07:38:53.979Z,49.90
2019-04-26T07:41:51.325Z,49.60
2019-04-26T07:44:32.600Z,50.00
2019-04-26T07:47:11.685Z,49.20
2019-04-26T07:49:58.992Z,50.20
2019-04-26T07:52:56.453Z,48.00
2019-04-26T07:55:34.058Z,47.80
2019-04-26T07:58:25.589Z,47.00
2019-04-26T08:01:02.738Z,45.90
2019-04-26T08:03:49.396Z,45.30
2019-04-26T08:06:23.733Z,46.10
2019-04-26T08:08:55.711Z,46.10
2019-04-26T08:11:33.707Z,44.50
2019-04-26T08:14:08.512Z,44.10
2019-04-26T08:16:54.154Z,58.30
2019-04-26T08:19:26.340Z,42.90
2019-04-26T08:22:11.525Z,41.50
2019-04-26T08:24:30.897Z,40.50
2019-04-26T08:27:17.923Z,40.30
2019-04-26T08:29:41.924Z,39.60
2019-04-26T08:32:15.383Z,39.60
2019-04-26T08:34:47.314Z,40.80
2019-04-26T08:37:36.531Z,39.40
2019-04-26T08:40:06.605Z,38.80
2019-04-26T08:42:38.769Z,38.70
2019-04-26T08:45:13.560Z,38.10
2019-04-26T08:47:51.066Z,37.30
2019-04-26T08:50:24.869Z,36.90
2019-04-26T08:52:58.011Z,37.80
2019-04-26T08:55:29.951Z,36.80
2019-04-26T08:58:01.858Z,36.70
2019-04-26T09:00:37.701Z,35.40
2019-04-26T09:03:16.637Z,36.40
2019-04-26T09:06:06.009Z,37.70
2019-04-26T09:08:39.168Z,37.30
2019-04-26T09:11:23.694Z,35.60
2019-04-26T09:13:45.013Z,35.10
2019-04-26T09:16:15.949Z,34.80
2019-04-26T09:18:52.689Z,34.10
2019-04-26T09:21:17.590Z,34.70
2019-04-26T09:23:58.245Z,35.70
2019-04-26T09:26:28.739Z,34.70
2019-04-26T09:28:59.440Z,35.00
2019-04-26T09:31:41.859Z,35.30
2019-04-26T09:34:12.304Z,34.80
2019-04-26T09:36:41.210Z,34.40
2019-04-26T09:39:11.753Z,34.50
2019-04-26T09:41:40.944Z,33.60
2019-04-26T09:44:14.582Z,33.00
2019-04-26T09:46:52.758Z,34.50
2019-04-26T09:49:25.396Z,34.70
2019-04-26T09:51:54.960Z,35.30
2019-04-26T09:54:23.833Z,34.60
2019-04-26T09:56:52.733Z,34.50
2019-04-26T09:59:21.642Z,33.70
2019-04-26T10:01:50.555Z,32.40
2019-04-26T10:04:19.444Z,31.90
2019-04-26T10:06:49.393Z,34.40
2019-04-26T10:09:21.314Z,34.10
2019-04-26T10:11:54.455Z,34.30
2019-04-26T10:14:27.778Z,34.20
2019-04-26T10:17:17.490Z,34.50
2019-04-26T10:19:48.314Z,34.00
2019-04-26T10:22:16.405Z,32.80
2019-04-26T10:24:46.029Z,32.00
2019-04-26T10:27:14.836Z,32.40
2019-04-26T10:29:43.628Z,32.80
2019-04-26T10:32:12.571Z,33.50
2019-04-26T10:34:42.821Z,34.30
2019-04-26T10:37:12.101Z,34.10
2019-04-26T10:39:40.882Z,34.70
2019-04-26T10:42:09.818Z,34.40
2019-04-26T10:44:39.994Z,34.70
2019-04-26T10:47:08.757Z,34.90
2019-04-26T10:49:45.648Z,35.20
2019-04-26T10:52:32.980Z,35.20
2019-04-26T10:55:03.524Z,36.00
2019-04-26T10:57:46.024Z,36.30
2019-04-26T11:00:33.884Z,36.90
2019-04-26T11:03:04.562Z,38.40
2019-04-26T11:05:33.549Z,38.30
2019-04-26T11:08:03.370Z,38.60
2019-04-26T11:10:32.767Z,38.70
2019-04-26T11:13:01.801Z,39.00
2019-04-26T11:15:32.692Z,38.70
2019-04-26T11:18:01.456Z,38.80
2019-04-26T11:20:30.468Z,39.90
2019-04-26T11:22:59.477Z,40.80
2019-04-26T11:25:29.485Z,40.90
2019-04-26T11:27:58.519Z,41.30
2019-04-26T11:30:27.325Z,40.90
2019-04-26T11:32:56.216Z,40.30
2019-04-26T11:35:25.069Z,39.40
2019-04-26T11:37:55.164Z,38.90
2019-04-26T11:40:24.373Z,38.60
2019-04-26T11:42:53.298Z,38.00
2019-04-26T11:45:22.209Z,37.20
2019-04-26T11:47:56.263Z,37.70
2019-04-26T11:50:21.559Z,38.10
2019-04-26T11:52:50.364Z,38.50
2019-04-26T11:55:19.377Z,39.00
2019-04-26T11:57:49.139Z,39.30
2019-04-26T12:00:32.543Z,39.60
2019-04-26T12:03:01.343Z,39.90
2019-04-26T12:05:34.450Z,39.40
2019-04-26T12:08:04.995Z,39.60
2019-04-26T12:10:33.907Z,39.90
2019-04-26T12:13:05.780Z,39.80
2019-04-26T12:15:33.354Z,40.10
2019-04-26T12:18:05.506Z,40.40
2019-04-26T12:20:34.442Z,40.40
2019-04-26T12:23:03.249Z,40.70
2019-04-26T12:25:32.053Z,41.10
2019-04-26T12:28:01.831Z,41.50
2019-04-26T12:30:31.508Z,42.00
2019-04-26T12:33:00.317Z,42.00
2019-04-26T12:35:30.109Z,42.10
2019-04-26T12:37:59.090Z,42.10
2019-04-26T12:40:28.062Z,42.20
2019-04-26T12:42:56.972Z,42.00
2019-04-26T12:45:47.354Z,41.90
2019-04-26T12:48:22.007Z,41.70
2019-04-26T12:50:50.914Z,41.80
2019-04-26T12:53:19.880Z,43.70
2019-04-26T12:55:49.233Z,44.90
2019-04-26T12:58:19.378Z,45.70
2019-04-26T13:00:54.206Z,46.20
2019-04-26T13:03:20.570Z,44.50
2019-04-26T13:05:57.402Z,44.40
2019-04-26T13:08:19.923Z,44.70
2019-04-26T13:11:07.921Z,45.00
2019-04-26T13:13:41.889Z,45.10
2019-04-26T13:16:15.198Z,45.30
2019-04-26T13:18:45.337Z,46.30
2019-04-26T13:21:14.653Z,44.00
2019-04-26T13:23:43.669Z,46.80
2019-04-26T13:26:12.560Z,48.80
2019-04-26T13:28:41.580Z,49.50
2019-04-26T13:31:10.389Z,50.20
2019-04-26T13:33:39.304Z,49.70
2019-04-26T13:36:08.201Z,50.20
2019-04-26T13:38:39.407Z,50.80
2019-04-26T13:41:07.550Z,51.70
2019-04-26T13:43:36.457Z,51.60
2019-04-26T13:46:15.807Z,51.60
2019-04-26T13:49:02.673Z,50.90
2019-04-26T13:51:33.160Z,51.60
2019-04-26T13:54:01.988Z,50.40
2019-04-26T13:56:32.126Z,50.40
2019-04-26T13:59:01.425Z,51.70
2019-04-26T14:01:30.340Z,52.50
2019-04-26T14:04:02.448Z,51.90
2019-04-26T14:06:29.686Z,53.10
2019-04-26T14:09:02.761Z,53.50
2019-04-26T14:11:29.585Z,53.20
2019-04-26T14:14:00.003Z,53.10
2019-04-26T14:16:29.101Z,52.90
2019-04-26T14:18:57.911Z,52.80
2019-04-26T14:21:29.195Z,52.50
2019-04-26T14:24:14.150Z,51.90
2019-04-26T14:26:47.255Z,51.60
2019-04-26T14:29:16.054Z,51.60
2019-04-26T14:31:47.205Z,50.90
2019-04-26T14:34:15.507Z,50.60
2019-04-26T14:36:44.322Z,50.30
2019-04-26T14:39:14.859Z,51.00
2019-04-26T14:41:43.945Z,49.80
2019-04-26T14:44:15.714Z,49.40
2019-04-26T14:46:48.906Z,49.50
2019-04-26T14:49:13.869Z,49.20
2019-04-26T14:51:42.673Z,49.70
2019-04-26T14:54:12.515Z,49.90
2019-04-26T14:56:51.763Z,49.70
2019-04-26T14:59:12.322Z,50.50
2019-04-26T15:01:45.572Z,50.30
2019-04-26T15:04:34.566Z,50.50
2019-04-26T15:07:05.585Z,50.50
2019-04-26T15:09:36.503Z,50.90
2019-04-26T15:12:07.750Z,50.80
2019-04-26T15:14:35.600Z,51.30
2019-04-26T15:17:04.591Z,51.10
2019-04-26T15:19:35.131Z,51.10
2019-04-26T15:22:10.142Z,51.10
2019-04-26T15:24:38.500Z,51.10
2019-04-26T15:27:04.941Z,51.20
2019-04-26T15:29:33.851Z,51.30
2019-04-26T15:32:03.167Z,51.40
2019-04-26T15:34:33.306Z,50.90
2019-04-26T15:37:02.974Z,51.10
2019-04-26T15:39:33.574Z,51.30
2019-04-26T15:42:25.213Z,51.50
2019-04-26T15:44:52.574Z,51.00
2019-04-26T15:47:34.371Z,51.30
2019-04-26T15:50:09.890Z,51.10
2019-04-26T15:52:37.923Z,51.00
2019-04-26T15:55:06.833Z,51.10
2019-04-26T15:57:35.638Z,50.90
2019-04-26T16:00:07.190Z,50.90
2019-04-26T16:02:36.118Z,51.20
2019-04-26T16:05:06.618Z,51.30
2019-04-26T16:07:35.467Z,53.80
2019-04-26T16:10:06.418Z,52.90
2019-04-26T16:12:35.225Z,53.30
2019-04-26T16:15:06.499Z,54.10
2019-04-26T16:17:36.127Z,54.40
2019-04-26T16:20:07.780Z,54.00
2019-04-26T16:22:36.609Z,53.30
2019-04-26T16:25:06.826Z,53.80
2019-04-26T16:27:35.735Z,53.90
2019-04-26T16:30:14.262Z,54.30
2019-04-26T16:32:58.586Z,54.30
2019-04-26T16:35:28.064Z,54.60
2019-04-26T16:37:59.818Z,54.60
2019-04-26T16:40:26.471Z,54.80
2019-04-26T16:42:59.428Z,54.80
2019-04-26T16:45:26.129Z,54.80
2019-04-26T16:47:55.036Z,54.80
2019-04-26T16:52:54.594Z,55.10
2019-04-26T16:55:24.719Z,55.10
2019-04-26T16:57:57.974Z,55.30
2019-04-26T17:00:47.359Z,55.30
2019-04-26T17:03:02.758Z,55.70
2019-04-26T17:07:58.857Z,56.20
2019-04-26T17:09:37.395Z,54.90
2019-04-26T17:09:50.950Z,55.80
2019-04-26T17:10:26.876Z,56.40
2019-04-26T17:12:55.887Z,56.70
2019-04-26T17:15:24.793Z,56.70
2019-04-26T17:17:53.706Z,57.00
2019-04-26T17:20:24.394Z,57.20
2019-04-26T17:23:12.429Z,57.40
2019-04-26T17:25:43.044Z,57.60
2019-04-26T17:28:13.885Z,57.80
2019-04-26T17:30:44.614Z,58.00
2019-04-26T17:33:13.134Z,58.20
2019-04-26T17:35:42.254Z,58.50
2019-04-26T17:38:11.560Z,58.60
2019-04-26T17:40:41.095Z,58.70
2019-04-26T17:43:11.462Z,59.20
2019-04-26T17:45:44.005Z,59.40
2019-04-26T17:48:14.053Z,60.80
2019-04-26T17:50:42.369Z,62.00
2019-04-26T17:53:13.499Z,63.40
2019-04-26T17:55:45.832Z,64.70
2019-04-26T17:58:17.348Z,66.00
2019-04-26T18:00:45.929Z,66.60
2019-04-26T18:03:14.957Z,67.00
2019-04-26T18:05:56.681Z,67.70
2019-04-26T18:08:33.833Z,68.00
2019-04-26T18:10:45.284Z,68.40
2019-04-26T18:13:16.095Z,69.20
2019-04-26T18:15:48.329Z,69.70
2019-04-26T18:18:31.853Z,70.30
2019-04-26T18:21:20.517Z,70.90
2019-04-26T18:23:54.708Z,71.80
2019-04-26T18:26:21.553Z,72.60
2019-04-26T18:28:53.339Z,72.70
2019-04-26T18:31:28.502Z,73.20
2019-04-26T18:33:54.812Z,73.70
2019-04-26T18:36:23.589Z,73.90
2019-04-26T18:38:53.677Z,74.40
2019-04-26T18:41:28.565Z,74.90
2019-04-26T18:43:55.558Z,75.50
2019-04-26T18:46:31.774Z,76.10
2019-04-26T18:48:58.870Z,76.90
2019-04-26T18:51:27.883Z,77.70
2019-04-26T18:54:17.607Z,78.30
2019-04-26T18:56:45.861Z,78.90
2019-04-26T18:59:15.550Z,79.10
2019-04-26T19:01:44.906Z,79.20
2019-04-26T19:04:15.503Z,79.50
2019-04-26T19:06:47.430Z,79.90
2019-04-26T19:09:18.382Z,80.50
2019-04-26T19:11:48.580Z,80.20
2019-04-26T19:14:22.225Z,80.80
2019-04-26T19:16:59.140Z,80.90
2019-04-26T19:19:38.779Z,81.30
2019-04-26T19:22:13.102Z,81.70
2019-04-26T19:24:39.877Z,82.00
2019-04-26T19:27:08.678Z,82.30
2019-04-26T19:29:37.587Z,82.80
2019-04-26T19:32:07.416Z,83.20
2019-04-26T19:34:36.445Z,83.50
2019-04-26T19:37:05.548Z,83.60
2019-04-26T19:39:35.804Z,84.10
2019-04-26T19:42:06.247Z,84.10
2019-04-26T19:44:35.433Z,84.60
2019-04-26T19:47:12.331Z,84.80
2019-04-26T19:50:03.172Z,84.50
2019-04-26T19:52:45.249Z,84.80
2019-04-26T19:55:31.895Z,84.90
2019-04-26T19:58:05.369Z,85.10
2019-04-26T20:00:34.276Z,85.20
2019-04-26T20:03:03.292Z,86.50
2019-04-26T20:05:32.193Z,85.80
2019-04-26T20:08:04.600Z,90.80
2019-04-26T20:10:34.551Z,86.00
2019-04-26T20:13:02.647Z,87.10
2019-04-26T20:15:31.934Z,86.30
2019-04-26T20:18:03.684Z,86.50
2019-04-26T20:20:34.509Z,87.00
2019-04-26T20:23:05.905Z,87.20
2019-04-26T20:25:32.742Z,87.50
2019-04-26T20:28:03.151Z,87.80
2019-04-26T20:30:33.861Z,87.90
2019-04-26T20:33:02.870Z,89.00
2019-04-26T20:35:31.958Z,88.30
2019-04-26T20:38:04.534Z,88.70
2019-04-26T20:40:31.538Z,88.90
2019-04-26T20:43:03.278Z,89.50
2019-04-26T20:45:39.774Z,89.60
2019-04-26T20:48:02.334Z,89.80
2019-04-26T20:50:35.270Z,90.00
2019-04-26T20:53:02.298Z,90.30
2019-04-26T20:55:34.454Z,90.40
2019-04-26T20:58:06.980Z,90.50
2019-04-26T21:00:36.564Z,90.60
2019-04-26T21:03:05.915Z,90.60
2019-04-26T21:05:45.709Z,90.70
2019-04-26T21:08:04.363Z,91.00
2019-04-26T21:10:35.851Z,91.10
2019-04-26T21:13:03.938Z,91.50
2019-04-26T21:15:35.830Z,91.70
2019-04-26T21:18:04.273Z,91.80
2019-04-26T21:20:36.395Z,91.90
2019-04-26T21:23:03.910Z,92.20
2019-04-26T21:25:35.602Z,92.20
2019-04-26T21:28:06.837Z,92.30
2019-04-26T21:30:38.625Z,92.50
2019-04-26T21:33:18.723Z,92.60
2019-04-26T21:35:49.267Z,92.60
2019-04-26T21:38:35.988Z,92.90
2019-04-26T21:41:18.296Z,93.00
2019-04-26T21:43:47.307Z,93.20
2019-04-26T21:46:19.282Z,93.30
2019-04-26T21:48:46.759Z,93.50
2019-04-26T21:51:16.241Z,93.70
2019-04-26T21:53:45.424Z,93.80
2019-04-26T21:56:14.826Z,94.10
2019-04-26T21:58:45.997Z,94.10
2019-04-26T22:01:19.161Z,94.20
2019-04-26T22:03:54.174Z,94.20
2019-04-26T22:06:20.042Z,94.50
2019-04-26T22:08:57.257Z,94.60
2019-04-26T22:11:23.248Z,94.80
2019-04-26T22:14:13.175Z,94.90
2019-04-26T22:16:57.558Z,95.10
2019-04-26T22:19:28.001Z,95.30
2019-04-26T22:22:07.548Z,95.40
2019-04-26T22:24:44.137Z,95.50
2019-04-26T22:27:13.383Z,95.60
2019-04-26T22:29:43.652Z,95.70
2019-04-26T22:32:15.909Z,95.80
2019-04-26T22:34:46.180Z,95.90
2019-04-26T22:37:16.164Z,96.30
2019-04-26T22:39:44.641Z,96.10
2019-04-26T22:42:13.910Z,96.10
2019-04-26T22:44:56.790Z,96.20
2019-04-26T22:47:40.905Z,96.30
2019-04-26T22:50:07.482Z,96.30
2019-04-26T22:52:36.408Z,96.50
2019-04-26T22:55:08.664Z,96.60
2019-04-26T22:57:37.497Z,96.80
2019-04-26T23:00:07.042Z,96.90
2019-04-26T23:02:36.029Z,97.00
2019-04-26T23:05:06.459Z,96.90
2019-04-26T23:07:35.479Z,97.10
2019-04-26T23:10:06.992Z,97.30
2019-04-26T23:12:37.590Z,97.40
2019-04-26T23:15:08.138Z,97.50
2019-04-26T23:17:38.683Z,97.90
2019-04-26T23:20:14.855Z,97.60
2019-04-26T23:22:43.661Z,97.70
2019-04-26T23:25:13.628Z,97.80
2019-04-26T23:27:43.571Z,97.90
2019-04-26T23:30:14.080Z,98.00
2019-04-26T23:32:43.461Z,98.00
2019-04-26T23:35:13.764Z,98.00
2019-04-26T23:37:43.043Z,97.80
2019-04-26T23:40:11.890Z,97.90
2019-04-26T23:42:40.749Z,98.20
2019-04-26T23:45:12.331Z,98.40
2019-04-26T23:47:40.313Z,98.30
2019-04-26T23:50:09.221Z,98.40
2019-04-26T23:52:38.224Z,98.40
2019-04-26T23:55:08.781Z,98.40
2019-04-26T23:57:37.678Z,98.40
